sensor_id;sensor_type;location;lat;lon;timestamp;P1;durP1;ratioP1;P2;durP2;ratioP2
16385;SDS011;8302;51.154;4.456;2023-12-14T00:01:31;15.75;;;9.88;;
16385;SDS011;8302;51.154;4.456;2023-12-14T00:03:59;14.35;;;9.75;;
16385;SDS011;8302;51.154;4.456;2023-12-14T00:06:27;16.42;;;9.43;;
16385;SDS011;8302;51.154;4.456;2023-12-14T00:08:56;14.77;;;9.95;;
16385;SDS011;8302;51.154;4.456;2023-12-14T00:11:23;14.07;;;9.27;;
16385;SDS011;8302;51.154;4.456;2023-12-14T00:13:51;17.90;;;10.07;;
16385;SDS011;8302;51.154;4.456;2023-12-14T00:16:19;15.50;;;9.85;;
16385;SDS011;8302;51.154;4.456;2023-12-14T00:18:47;14.35;;;9.73;;
16385;SDS011;8302;51.154;4.456;2023-12-14T00:21:14;15.80;;;10.07;;
16385;SDS011;8302;51.154;4.456;2023-12-14T00:23:42;14.50;;;9.50;;
16385;SDS011;8302;51.154;4.456;2023-12-14T00:26:11;15.52;;;10.35;;
16385;SDS011;8302;51.154;4.456;2023-12-14T00:28:39;14.88;;;10.10;;
16385;SDS011;8302;51.154;4.456;2023-12-14T00:31:07;14.55;;;9.85;;
16385;SDS011;8302;51.154;4.456;2023-12-14T00:33:35;12.85;;;8.82;;
16385;SDS011;8302;51.154;4.456;2023-12-14T00:36:03;14.27;;;9.38;;
16385;SDS011;8302;51.154;4.456;2023-12-14T00:38:30;14.10;;;9.40;;
16385;SDS011;8302;51.154;4.456;2023-12-14T00:40:58;14.45;;;8.93;;
16385;SDS011;8302;51.154;4.456;2023-12-14T00:43:27;12.48;;;7.80;;
16385;SDS011;8302;51.154;4.456;2023-12-14T00:45:55;13.20;;;8.57;;
16385;SDS011;8302;51.154;4.456;2023-12-14T00:48:23;12.77;;;8.48;;
16385;SDS011;8302;51.154;4.456;2023-12-14T00:50:51;12.45;;;8.25;;
16385;SDS011;8302;51.154;4.456;2023-12-14T00:53:18;12.75;;;8.23;;
16385;SDS011;8302;51.154;4.456;2023-12-14T00:55:46;12.65;;;7.97;;
16385;SDS011;8302;51.154;4.456;2023-12-14T00:58:14;12.05;;;7.25;;
16385;SDS011;8302;51.154;4.456;2023-12-14T01:00:43;12.38;;;7.07;;
16385;SDS011;8302;51.154;4.456;2023-12-14T01:03:11;11.40;;;7.25;;
16385;SDS011;8302;51.154;4.456;2023-12-14T01:05:39;9.10;;;6.35;;
16385;SDS011;8302;51.154;4.456;2023-12-14T01:08:06;8.55;;;6.53;;
16385;SDS011;8302;51.154;4.456;2023-12-14T01:10:35;10.38;;;6.43;;
16385;SDS011;8302;51.154;4.456;2023-12-14T01:13:02;10.88;;;6.68;;
16385;SDS011;8302;51.154;4.456;2023-12-14T01:15:30;8.50;;;5.80;;
16385;SDS011;8302;51.154;4.456;2023-12-14T01:17:59;9.15;;;5.68;;
16385;SDS011;8302;51.154;4.456;2023-12-14T01:20:27;10.00;;;6.35;;
16385;SDS011;8302;51.154;4.456;2023-12-14T01:22:55;9.55;;;6.07;;
16385;SDS011;8302;51.154;4.456;2023-12-14T01:25:23;10.25;;;6.68;;
16385;SDS011;8302;51.154;4.456;2023-12-14T01:27:51;7.75;;;5.65;;
16385;SDS011;8302;51.154;4.456;2023-12-14T01:30:18;9.60;;;6.50;;
16385;SDS011;8302;51.154;4.456;2023-12-14T01:32:46;9.32;;;5.63;;
16385;SDS011;8302;51.154;4.456;2023-12-14T01:35:15;8.55;;;5.50;;
16385;SDS011;8302;51.154;4.456;2023-12-14T01:37:43;8.05;;;5.57;;
16385;SDS011;8302;51.154;4.456;2023-12-14T01:40:11;11.40;;;6.70;;
16385;SDS011;8302;51.154;4.456;2023-12-14T01:42:39;9.82;;;6.10;;
16385;SDS011;8302;51.154;4.456;2023-12-14T01:45:07;9.05;;;6.22;;
16385;SDS011;8302;51.154;4.456;2023-12-14T01:47:35;10.13;;;5.82;;
16385;SDS011;8302;51.154;4.456;2023-12-14T01:50:03;8.55;;;5.88;;
16385;SDS011;8302;51.154;4.456;2023-12-14T01:52:32;10.50;;;5.70;;
16385;SDS011;8302;51.154;4.456;2023-12-14T01:55:00;10.43;;;6.07;;
16385;SDS011;8302;51.154;4.456;2023-12-14T01:57:29;8.40;;;5.63;;
16385;SDS011;8302;51.154;4.456;2023-12-14T01:59:56;10.93;;;5.95;;
16385;SDS011;8302;51.154;4.456;2023-12-14T02:02:24;9.57;;;6.38;;
16385;SDS011;8302;51.154;4.456;2023-12-14T02:04:52;10.57;;;5.80;;
16385;SDS011;8302;51.154;4.456;2023-12-14T02:07:20;8.20;;;5.55;;
16385;SDS011;8302;51.154;4.456;2023-12-14T02:09:49;9.40;;;5.85;;
16385;SDS011;8302;51.154;4.456;2023-12-14T02:12:17;9.27;;;6.13;;
16385;SDS011;8302;51.154;4.456;2023-12-14T02:14:45;8.35;;;5.40;;
16385;SDS011;8302;51.154;4.456;2023-12-14T02:17:11;9.23;;;5.55;;
16385;SDS011;8302;51.154;4.456;2023-12-14T02:19:39;9.15;;;5.38;;
16385;SDS011;8302;51.154;4.456;2023-12-14T02:22:07;8.43;;;5.60;;
16385;SDS011;8302;51.154;4.456;2023-12-14T02:24:36;7.50;;;5.45;;
16385;SDS011;8302;51.154;4.456;2023-12-14T02:27:04;7.28;;;5.13;;
16385;SDS011;8302;51.154;4.456;2023-12-14T02:29:32;7.00;;;5.15;;
16385;SDS011;8302;51.154;4.456;2023-12-14T02:32:00;8.00;;;5.18;;
16385;SDS011;8302;51.154;4.456;2023-12-14T02:34:27;6.50;;;4.40;;
16385;SDS011;8302;51.154;4.456;2023-12-14T02:36:55;7.40;;;4.38;;
16385;SDS011;8302;51.154;4.456;2023-12-14T02:39:23;5.47;;;4.10;;
16385;SDS011;8302;51.154;4.456;2023-12-14T02:41:52;4.93;;;3.85;;
16385;SDS011;8302;51.154;4.456;2023-12-14T02:44:20;5.53;;;4.00;;
16385;SDS011;8302;51.154;4.456;2023-12-14T02:46:47;5.88;;;4.55;;
16385;SDS011;8302;51.154;4.456;2023-12-14T02:49:15;5.53;;;3.88;;
16385;SDS011;8302;51.154;4.456;2023-12-14T02:51:43;6.40;;;3.72;;
16385;SDS011;8302;51.154;4.456;2023-12-14T02:54:11;5.72;;;4.05;;
16385;SDS011;8302;51.154;4.456;2023-12-14T02:56:38;5.25;;;4.05;;
16385;SDS011;8302;51.154;4.456;2023-12-14T02:59:07;6.60;;;4.40;;
16385;SDS011;8302;51.154;4.456;2023-12-14T03:01:35;7.63;;;4.72;;
16385;SDS011;8302;51.154;4.456;2023-12-14T03:04:03;6.85;;;4.93;;
16385;SDS011;8302;51.154;4.456;2023-12-14T03:06:31;7.15;;;4.35;;
16385;SDS011;8302;51.154;4.456;2023-12-14T03:08:59;7.22;;;4.50;;
16385;SDS011;8302;51.154;4.456;2023-12-14T03:11:27;7.30;;;4.20;;
16385;SDS011;8302;51.154;4.456;2023-12-14T03:13:55;7.43;;;5.10;;
16385;SDS011;8302;51.154;4.456;2023-12-14T03:16:24;6.55;;;4.57;;
16385;SDS011;8302;51.154;4.456;2023-12-14T03:18:51;7.00;;;4.80;;
16385;SDS011;8302;51.154;4.456;2023-12-14T03:21:20;7.40;;;4.78;;
16385;SDS011;8302;51.154;4.456;2023-12-14T03:23:48;7.72;;;5.10;;
16385;SDS011;8302;51.154;4.456;2023-12-14T03:26:16;6.70;;;4.82;;
16385;SDS011;8302;51.154;4.456;2023-12-14T03:28:43;8.40;;;5.20;;
16385;SDS011;8302;51.154;4.456;2023-12-14T03:31:11;7.20;;;4.82;;
16385;SDS011;8302;51.154;4.456;2023-12-14T03:33:43;7.07;;;5.10;;
16385;SDS011;8302;51.154;4.456;2023-12-14T03:36:10;6.25;;;4.38;;
16385;SDS011;8302;51.154;4.456;2023-12-14T03:38:39;5.65;;;4.57;;
16385;SDS011;8302;51.154;4.456;2023-12-14T03:41:06;7.25;;;4.80;;
16385;SDS011;8302;51.154;4.456;2023-12-14T03:43:34;8.57;;;4.68;;
16385;SDS011;8302;51.154;4.456;2023-12-14T03:46:02;6.72;;;4.32;;
16385;SDS011;8302;51.154;4.456;2023-12-14T03:48:30;5.38;;;3.97;;
16385;SDS011;8302;51.154;4.456;2023-12-14T03:51:01;5.63;;;4.22;;
16385;SDS011;8302;51.154;4.456;2023-12-14T03:53:29;5.13;;;3.90;;
16385;SDS011;8302;51.154;4.456;2023-12-14T03:55:57;4.40;;;3.72;;
16385;SDS011;8302;51.154;4.456;2023-12-14T03:58:25;5.70;;;3.67;;
16385;SDS011;8302;51.154;4.456;2023-12-14T04:00:52;4.75;;;3.75;;
16385;SDS011;8302;51.154;4.456;2023-12-14T04:03:20;5.15;;;4.00;;
16385;SDS011;8302;51.154;4.456;2023-12-14T04:05:48;5.80;;;3.88;;
16385;SDS011;8302;51.154;4.456;2023-12-14T04:08:17;4.50;;;3.88;;
16385;SDS011;8302;51.154;4.456;2023-12-14T04:10:45;5.63;;;4.47;;
16385;SDS011;8302;51.154;4.456;2023-12-14T04:13:13;4.88;;;3.72;;
16385;SDS011;8302;51.154;4.456;2023-12-14T04:15:41;5.65;;;3.85;;
16385;SDS011;8302;51.154;4.456;2023-12-14T04:18:09;5.88;;;4.63;;
16385;SDS011;8302;51.154;4.456;2023-12-14T04:20:37;5.55;;;4.07;;
16385;SDS011;8302;51.154;4.456;2023-12-14T04:23:04;5.40;;;4.38;;
16385;SDS011;8302;51.154;4.456;2023-12-14T04:25:34;5.13;;;3.85;;
16385;SDS011;8302;51.154;4.456;2023-12-14T04:28:02;6.00;;;4.47;;
16385;SDS011;8302;51.154;4.456;2023-12-14T04:30:29;5.85;;;4.10;;
16385;SDS011;8302;51.154;4.456;2023-12-14T04:32:57;5.85;;;4.20;;
16385;SDS011;8302;51.154;4.456;2023-12-14T04:35:25;5.45;;;4.07;;
16385;SDS011;8302;51.154;4.456;2023-12-14T04:37:53;5.72;;;4.35;;
16385;SDS011;8302;51.154;4.456;2023-12-14T04:40:20;5.78;;;4.47;;
16385;SDS011;8302;51.154;4.456;2023-12-14T04:42:49;6.38;;;4.20;;
16385;SDS011;8302;51.154;4.456;2023-12-14T04:45:17;5.80;;;4.20;;
16385;SDS011;8302;51.154;4.456;2023-12-14T04:47:45;4.30;;;3.75;;
16385;SDS011;8302;51.154;4.456;2023-12-14T04:50:13;5.60;;;3.90;;
16385;SDS011;8302;51.154;4.456;2023-12-14T04:52:41;6.30;;;4.32;;
16385;SDS011;8302;51.154;4.456;2023-12-14T04:55:09;5.82;;;4.55;;
16385;SDS011;8302;51.154;4.456;2023-12-14T04:57:37;5.38;;;3.78;;
16385;SDS011;8302;51.154;4.456;2023-12-14T05:00:06;5.40;;;4.35;;
16385;SDS011;8302;51.154;4.456;2023-12-14T05:02:35;4.70;;;4.05;;
16385;SDS011;8302;51.154;4.456;2023-12-14T05:05:03;6.15;;;3.88;;
16385;SDS011;8302;51.154;4.456;2023-12-14T05:07:31;4.75;;;3.65;;
16385;SDS011;8302;51.154;4.456;2023-12-14T05:09:59;4.63;;;3.65;;
16385;SDS011;8302;51.154;4.456;2023-12-14T05:12:27;4.60;;;3.55;;
16385;SDS011;8302;51.154;4.456;2023-12-14T05:14:55;5.25;;;3.40;;
16385;SDS011;8302;51.154;4.456;2023-12-14T05:17:24;5.75;;;4.47;;
16385;SDS011;8302;51.154;4.456;2023-12-14T05:19:52;5.70;;;4.22;;
16385;SDS011;8302;51.154;4.456;2023-12-14T05:22:20;4.00;;;3.58;;
16385;SDS011;8302;51.154;4.456;2023-12-14T05:24:48;4.45;;;3.42;;
16385;SDS011;8302;51.154;4.456;2023-12-14T05:27:15;5.05;;;3.50;;
16385;SDS011;8302;51.154;4.456;2023-12-14T05:29:43;5.35;;;3.80;;
16385;SDS011;8302;51.154;4.456;2023-12-14T05:32:11;5.15;;;4.00;;
16385;SDS011;8302;51.154;4.456;2023-12-14T05:34:40;4.65;;;3.50;;
16385;SDS011;8302;51.154;4.456;2023-12-14T05:37:08;4.97;;;4.00;;
16385;SDS011;8302;51.154;4.456;2023-12-14T05:39:35;6.90;;;4.55;;
16385;SDS011;8302;51.154;4.456;2023-12-14T05:42:03;5.70;;;4.25;;
16385;SDS011;8302;51.154;4.456;2023-12-14T05:44:31;5.05;;;4.30;;
16385;SDS011;8302;51.154;4.456;2023-12-14T05:46:59;4.95;;;4.05;;
16385;SDS011;8302;51.154;4.456;2023-12-14T05:49:27;5.35;;;4.00;;
16385;SDS011;8302;51.154;4.456;2023-12-14T05:51:57;5.10;;;3.90;;
16385;SDS011;8302;51.154;4.456;2023-12-14T05:54:25;6.00;;;4.50;;
16385;SDS011;8302;51.154;4.456;2023-12-14T05:56:53;5.65;;;4.40;;
16385;SDS011;8302;51.154;4.456;2023-12-14T05:59:21;6.30;;;4.43;;
16385;SDS011;8302;51.154;4.456;2023-12-14T06:01:49;5.78;;;4.20;;
16385;SDS011;8302;51.154;4.456;2023-12-14T06:04:16;4.20;;;3.80;;
16385;SDS011;8302;51.154;4.456;2023-12-14T06:06:45;3.45;;;3.00;;
16385;SDS011;8302;51.154;4.456;2023-12-14T06:09:14;4.95;;;3.60;;
16385;SDS011;8302;51.154;4.456;2023-12-14T06:11:44;5.18;;;3.47;;
16385;SDS011;8302;51.154;4.456;2023-12-14T06:14:11;5.18;;;3.80;;
16385;SDS011;8302;51.154;4.456;2023-12-14T06:16:39;4.95;;;3.50;;
16385;SDS011;8302;51.154;4.456;2023-12-14T06:19:07;4.82;;;3.75;;
16385;SDS011;8302;51.154;4.456;2023-12-14T06:21:35;4.03;;;3.50;;
16385;SDS011;8302;51.154;4.456;2023-12-14T06:24:03;4.53;;;3.50;;
16385;SDS011;8302;51.154;4.456;2023-12-14T06:26:32;4.57;;;3.00;;
16385;SDS011;8302;51.154;4.456;2023-12-14T06:29:00;5.07;;;3.20;;
16385;SDS011;8302;51.154;4.456;2023-12-14T06:31:28;6.30;;;3.47;;
16385;SDS011;8302;51.154;4.456;2023-12-14T06:33:55;3.58;;;2.97;;
16385;SDS011;8302;51.154;4.456;2023-12-14T06:36:26;4.82;;;3.40;;
16385;SDS011;8302;51.154;4.456;2023-12-14T06:38:56;5.43;;;3.40;;
16385;SDS011;8302;51.154;4.456;2023-12-14T06:41:24;3.45;;;2.72;;
16385;SDS011;8302;51.154;4.456;2023-12-14T06:43:54;4.82;;;2.97;;
16385;SDS011;8302;51.154;4.456;2023-12-14T06:46:22;4.90;;;3.05;;
16385;SDS011;8302;51.154;4.456;2023-12-14T06:48:49;4.63;;;3.58;;
16385;SDS011;8302;51.154;4.456;2023-12-14T06:51:17;4.93;;;3.67;;
16385;SDS011;8302;51.154;4.456;2023-12-14T06:53:45;6.05;;;3.55;;
16385;SDS011;8302;51.154;4.456;2023-12-14T06:56:13;4.22;;;2.90;;
16385;SDS011;8302;51.154;4.456;2023-12-14T06:58:42;6.15;;;3.70;;
16385;SDS011;8302;51.154;4.456;2023-12-14T07:01:13;5.47;;;3.63;;
16385;SDS011;8302;51.154;4.456;2023-12-14T07:03:41;5.95;;;3.45;;
16385;SDS011;8302;51.154;4.456;2023-12-14T07:06:11;6.70;;;3.80;;
16385;SDS011;8302;51.154;4.456;2023-12-14T07:08:39;7.78;;;3.70;;
16385;SDS011;8302;51.154;4.456;2023-12-14T07:11:08;7.63;;;3.67;;
16385;SDS011;8302;51.154;4.456;2023-12-14T07:13:36;6.88;;;3.50;;
16385;SDS011;8302;51.154;4.456;2023-12-14T07:16:05;6.07;;;3.70;;
16385;SDS011;8302;51.154;4.456;2023-12-14T07:18:34;7.88;;;3.88;;
16385;SDS011;8302;51.154;4.456;2023-12-14T07:21:02;5.90;;;3.45;;
16385;SDS011;8302;51.154;4.456;2023-12-14T07:23:30;7.70;;;3.80;;
16385;SDS011;8302;51.154;4.456;2023-12-14T07:25:58;7.68;;;4.10;;
16385;SDS011;8302;51.154;4.456;2023-12-14T07:28:29;6.43;;;4.13;;
16385;SDS011;8302;51.154;4.456;2023-12-14T07:30:57;5.38;;;3.95;;
16385;SDS011;8302;51.154;4.456;2023-12-14T07:33:25;7.22;;;4.50;;
16385;SDS011;8302;51.154;4.456;2023-12-14T07:35:55;7.78;;;4.50;;
16385;SDS011;8302;51.154;4.456;2023-12-14T07:38:22;10.20;;;5.00;;
16385;SDS011;8302;51.154;4.456;2023-12-14T07:40:50;12.30;;;5.00;;
16385;SDS011;8302;51.154;4.456;2023-12-14T07:43:19;11.52;;;5.40;;
16385;SDS011;8302;51.154;4.456;2023-12-14T07:45:47;12.68;;;5.18;;
16385;SDS011;8302;51.154;4.456;2023-12-14T07:48:14;13.65;;;5.70;;
16385;SDS011;8302;51.154;4.456;2023-12-14T07:50:42;13.30;;;5.60;;
16385;SDS011;8302;51.154;4.456;2023-12-14T07:53:11;15.18;;;5.68;;
16385;SDS011;8302;51.154;4.456;2023-12-14T07:55:39;13.82;;;5.32;;
16385;SDS011;8302;51.154;4.456;2023-12-14T07:58:08;12.00;;;5.10;;
16385;SDS011;8302;51.154;4.456;2023-12-14T08:00:36;12.50;;;5.25;;
16385;SDS011;8302;51.154;4.456;2023-12-14T08:03:03;13.43;;;5.78;;
16385;SDS011;8302;51.154;4.456;2023-12-14T08:05:32;10.95;;;5.82;;
16385;SDS011;8302;51.154;4.456;2023-12-14T08:07:59;13.75;;;5.95;;
16385;SDS011;8302;51.154;4.456;2023-12-14T08:10:29;12.32;;;5.93;;
16385;SDS011;8302;51.154;4.456;2023-12-14T08:12:56;15.30;;;6.10;;
16385;SDS011;8302;51.154;4.456;2023-12-14T08:15:24;16.90;;;5.75;;
16385;SDS011;8302;51.154;4.456;2023-12-14T08:17:52;9.23;;;5.50;;
16385;SDS011;8302;51.154;4.456;2023-12-14T08:20:20;9.75;;;5.32;;
16385;SDS011;8302;51.154;4.456;2023-12-14T08:22:48;10.20;;;5.38;;
16385;SDS011;8302;51.154;4.456;2023-12-14T08:25:16;11.20;;;5.63;;
16385;SDS011;8302;51.154;4.456;2023-12-14T08:27:45;9.90;;;5.13;;
16385;SDS011;8302;51.154;4.456;2023-12-14T08:30:13;16.38;;;5.70;;
16385;SDS011;8302;51.154;4.456;2023-12-14T08:32:41;13.27;;;5.32;;
16385;SDS011;8302;51.154;4.456;2023-12-14T08:35:09;11.30;;;5.75;;
16385;SDS011;8302;51.154;4.456;2023-12-14T08:37:37;11.45;;;5.28;;
16385;SDS011;8302;51.154;4.456;2023-12-14T08:40:05;9.32;;;5.28;;
16385;SDS011;8302;51.154;4.456;2023-12-14T08:42:33;13.57;;;6.00;;
16385;SDS011;8302;51.154;4.456;2023-12-14T08:45:04;10.63;;;5.43;;
16385;SDS011;8302;51.154;4.456;2023-12-14T08:47:34;10.38;;;5.95;;
16385;SDS011;8302;51.154;4.456;2023-12-14T08:50:02;9.85;;;5.13;;
16385;SDS011;8302;51.154;4.456;2023-12-14T08:52:31;9.05;;;5.28;;
16385;SDS011;8302;51.154;4.456;2023-12-14T08:54:59;10.45;;;5.60;;
16385;SDS011;8302;51.154;4.456;2023-12-14T08:57:28;12.77;;;5.40;;
16385;SDS011;8302;51.154;4.456;2023-12-14T08:59:56;8.35;;;5.38;;
16385;SDS011;8302;51.154;4.456;2023-12-14T09:02:25;10.15;;;5.20;;
16385;SDS011;8302;51.154;4.456;2023-12-14T09:04:53;11.18;;;5.20;;
16385;SDS011;8302;51.154;4.456;2023-12-14T09:07:20;8.27;;;5.15;;
16385;SDS011;8302;51.154;4.456;2023-12-14T09:09:48;7.82;;;5.15;;
16385;SDS011;8302;51.154;4.456;2023-12-14T09:12:16;7.82;;;4.55;;
16385;SDS011;8302;51.154;4.456;2023-12-14T09:14:44;10.63;;;4.95;;
16385;SDS011;8302;51.154;4.456;2023-12-14T09:17:11;7.85;;;4.43;;
16385;SDS011;8302;51.154;4.456;2023-12-14T09:19:41;7.43;;;4.38;;
16385;SDS011;8302;51.154;4.456;2023-12-14T09:22:09;8.90;;;4.40;;
16385;SDS011;8302;51.154;4.456;2023-12-14T09:24:37;8.40;;;4.00;;
16385;SDS011;8302;51.154;4.456;2023-12-14T09:27:05;6.28;;;3.97;;
16385;SDS011;8302;51.154;4.456;2023-12-14T09:29:32;6.83;;;4.13;;
16385;SDS011;8302;51.154;4.456;2023-12-14T09:32:00;8.07;;;4.03;;
16385;SDS011;8302;51.154;4.456;2023-12-14T09:34:28;6.53;;;3.58;;
16385;SDS011;8302;51.154;4.456;2023-12-14T09:36:57;4.82;;;3.22;;
16385;SDS011;8302;51.154;4.456;2023-12-14T09:39:25;8.27;;;3.15;;
16385;SDS011;8302;51.154;4.456;2023-12-14T09:42:00;6.93;;;3.65;;
16385;SDS011;8302;51.154;4.456;2023-12-14T09:44:28;5.93;;;2.97;;
16385;SDS011;8302;51.154;4.456;2023-12-14T09:46:57;4.80;;;3.28;;
16385;SDS011;8302;51.154;4.456;2023-12-14T09:49:26;6.85;;;3.28;;
16385;SDS011;8302;51.154;4.456;2023-12-14T09:51:55;5.75;;;3.30;;
16385;SDS011;8302;51.154;4.456;2023-12-14T09:54:25;5.00;;;2.85;;
16385;SDS011;8302;51.154;4.456;2023-12-14T09:56:53;6.18;;;3.17;;
16385;SDS011;8302;51.154;4.456;2023-12-14T09:59:21;4.20;;;3.00;;
16385;SDS011;8302;51.154;4.456;2023-12-14T10:01:49;6.20;;;2.75;;
16385;SDS011;8302;51.154;4.456;2023-12-14T10:04:17;4.55;;;2.92;;
16385;SDS011;8302;51.154;4.456;2023-12-14T10:06:46;5.85;;;2.78;;
16385;SDS011;8302;51.154;4.456;2023-12-14T10:09:14;5.25;;;3.15;;
16385;SDS011;8302;51.154;4.456;2023-12-14T10:11:46;3.60;;;2.80;;
16385;SDS011;8302;51.154;4.456;2023-12-14T10:14:17;7.35;;;3.53;;
16385;SDS011;8302;51.154;4.456;2023-12-14T10:16:45;4.65;;;2.95;;
16385;SDS011;8302;51.154;4.456;2023-12-14T10:19:13;4.68;;;2.88;;
16385;SDS011;8302;51.154;4.456;2023-12-14T10:21:41;5.40;;;3.20;;
16385;SDS011;8302;51.154;4.456;2023-12-14T10:24:09;3.50;;;2.70;;
16385;SDS011;8302;51.154;4.456;2023-12-14T10:26:37;5.03;;;2.95;;
16385;SDS011;8302;51.154;4.456;2023-12-14T10:29:06;4.03;;;2.60;;
16385;SDS011;8302;51.154;4.456;2023-12-14T10:31:36;5.18;;;2.80;;
16385;SDS011;8302;51.154;4.456;2023-12-14T10:34:04;6.80;;;3.42;;
16385;SDS011;8302;51.154;4.456;2023-12-14T10:36:32;5.60;;;3.05;;
16385;SDS011;8302;51.154;4.456;2023-12-14T10:39:01;4.68;;;2.90;;
16385;SDS011;8302;51.154;4.456;2023-12-14T10:41:29;4.50;;;3.17;;
16385;SDS011;8302;51.154;4.456;2023-12-14T10:43:58;4.60;;;2.67;;
16385;SDS011;8302;51.154;4.456;2023-12-14T10:46:49;4.75;;;3.10;;
16385;SDS011;8302;51.154;4.456;2023-12-14T10:49:18;3.85;;;2.70;;
16385;SDS011;8302;51.154;4.456;2023-12-14T10:51:45;4.75;;;2.70;;
16385;SDS011;8302;51.154;4.456;2023-12-14T10:54:14;4.97;;;2.90;;
16385;SDS011;8302;51.154;4.456;2023-12-14T10:56:43;5.35;;;2.75;;
16385;SDS011;8302;51.154;4.456;2023-12-14T10:59:11;4.15;;;2.83;;
16385;SDS011;8302;51.154;4.456;2023-12-14T11:01:42;5.07;;;3.03;;
16385;SDS011;8302;51.154;4.456;2023-12-14T11:04:11;5.13;;;2.78;;
16385;SDS011;8302;51.154;4.456;2023-12-14T11:06:41;4.47;;;2.97;;
16385;SDS011;8302;51.154;4.456;2023-12-14T11:09:13;6.15;;;3.20;;
16385;SDS011;8302;51.154;4.456;2023-12-14T11:11:47;4.45;;;2.40;;
16385;SDS011;8302;51.154;4.456;2023-12-14T11:14:23;3.33;;;2.40;;
16385;SDS011;8302;51.154;4.456;2023-12-14T11:16:53;4.53;;;2.53;;
16385;SDS011;8302;51.154;4.456;2023-12-14T11:19:26;7.00;;;2.60;;
16385;SDS011;8302;51.154;4.456;2023-12-14T11:22:11;3.38;;;2.50;;
16385;SDS011;8302;51.154;4.456;2023-12-14T11:24:41;4.40;;;2.08;;
16385;SDS011;8302;51.154;4.456;2023-12-14T11:27:11;4.03;;;2.40;;
16385;SDS011;8302;51.154;4.456;2023-12-14T11:29:39;3.90;;;2.22;;
16385;SDS011;8302;51.154;4.456;2023-12-14T11:32:08;2.65;;;1.90;;
16385;SDS011;8302;51.154;4.456;2023-12-14T11:34:40;5.13;;;2.67;;
16385;SDS011;8302;51.154;4.456;2023-12-14T11:37:07;3.72;;;2.20;;
16385;SDS011;8302;51.154;4.456;2023-12-14T11:39:35;3.25;;;2.22;;
16385;SDS011;8302;51.154;4.456;2023-12-14T11:42:05;5.88;;;2.30;;
16385;SDS011;8302;51.154;4.456;2023-12-14T11:44:34;2.95;;;2.08;;
16385;SDS011;8302;51.154;4.456;2023-12-14T11:47:04;3.17;;;2.28;;
16385;SDS011;8302;51.154;4.456;2023-12-14T11:49:32;3.53;;;1.90;;
16385;SDS011;8302;51.154;4.456;2023-12-14T11:52:03;5.18;;;2.40;;
16385;SDS011;8302;51.154;4.456;2023-12-14T11:54:32;2.40;;;2.08;;
16385;SDS011;8302;51.154;4.456;2023-12-14T11:57:01;4.13;;;2.22;;
16385;SDS011;8302;51.154;4.456;2023-12-14T11:59:29;3.45;;;2.50;;
16385;SDS011;8302;51.154;4.456;2023-12-14T12:01:59;3.90;;;2.05;;
16385;SDS011;8302;51.154;4.456;2023-12-14T12:04:27;3.15;;;1.92;;
16385;SDS011;8302;51.154;4.456;2023-12-14T12:06:58;4.82;;;2.03;;
16385;SDS011;8302;51.154;4.456;2023-12-14T12:09:37;4.65;;;1.88;;
16385;SDS011;8302;51.154;4.456;2023-12-14T12:12:05;5.85;;;2.33;;
16385;SDS011;8302;51.154;4.456;2023-12-14T12:14:34;2.03;;;1.60;;
16385;SDS011;8302;51.154;4.456;2023-12-14T12:17:02;3.33;;;1.90;;
16385;SDS011;8302;51.154;4.456;2023-12-14T12:19:32;3.00;;;2.10;;
16385;SDS011;8302;51.154;4.456;2023-12-14T12:22:00;3.97;;;2.30;;
16385;SDS011;8302;51.154;4.456;2023-12-14T12:24:27;3.67;;;1.85;;
16385;SDS011;8302;51.154;4.456;2023-12-14T12:27:00;2.90;;;1.85;;
16385;SDS011;8302;51.154;4.456;2023-12-14T12:29:27;3.60;;;2.05;;
16385;SDS011;8302;51.154;4.456;2023-12-14T12:31:58;4.18;;;1.85;;
16385;SDS011;8302;51.154;4.456;2023-12-14T12:34:26;4.38;;;2.08;;
16385;SDS011;8302;51.154;4.456;2023-12-14T12:36:54;5.47;;;1.80;;
16385;SDS011;8302;51.154;4.456;2023-12-14T12:39:24;3.40;;;2.20;;
16385;SDS011;8302;51.154;4.456;2023-12-14T12:41:52;3.72;;;1.88;;
16385;SDS011;8302;51.154;4.456;2023-12-14T12:44:21;2.80;;;1.60;;
16385;SDS011;8302;51.154;4.456;2023-12-14T12:46:49;3.00;;;1.98;;
16385;SDS011;8302;51.154;4.456;2023-12-14T12:49:30;2.80;;;1.90;;
16385;SDS011;8302;51.154;4.456;2023-12-14T12:51:58;1.95;;;1.60;;
16385;SDS011;8302;51.154;4.456;2023-12-14T12:54:26;2.95;;;1.95;;
16385;SDS011;8302;51.154;4.456;2023-12-14T12:56:53;3.47;;;2.10;;
16385;SDS011;8302;51.154;4.456;2023-12-14T12:59:22;2.97;;;2.05;;
16385;SDS011;8302;51.154;4.456;2023-12-14T13:01:50;3.28;;;2.45;;
16385;SDS011;8302;51.154;4.456;2023-12-14T13:04:19;5.03;;;1.85;;
16385;SDS011;8302;51.154;4.456;2023-12-14T13:06:47;3.40;;;2.30;;
16385;SDS011;8302;51.154;4.456;2023-12-14T13:09:15;2.88;;;1.88;;
16385;SDS011;8302;51.154;4.456;2023-12-14T13:11:43;3.33;;;1.90;;
16385;SDS011;8302;51.154;4.456;2023-12-14T13:14:10;2.88;;;1.70;;
16385;SDS011;8302;51.154;4.456;2023-12-14T13:16:40;2.45;;;1.95;;
16385;SDS011;8302;51.154;4.456;2023-12-14T13:19:09;3.55;;;2.10;;
16385;SDS011;8302;51.154;4.456;2023-12-14T13:21:37;2.92;;;1.80;;
16385;SDS011;8302;51.154;4.456;2023-12-14T13:24:04;2.95;;;1.88;;
16385;SDS011;8302;51.154;4.456;2023-12-14T13:26:32;3.60;;;1.98;;
16385;SDS011;8302;51.154;4.456;2023-12-14T13:29:00;2.83;;;2.25;;
16385;SDS011;8302;51.154;4.456;2023-12-14T13:31:29;2.53;;;1.75;;
16385;SDS011;8302;51.154;4.456;2023-12-14T13:33:58;4.30;;;2.10;;
16385;SDS011;8302;51.154;4.456;2023-12-14T13:36:26;3.10;;;1.88;;
16385;SDS011;8302;51.154;4.456;2023-12-14T13:38:54;2.83;;;2.17;;
16385;SDS011;8302;51.154;4.456;2023-12-14T13:41:22;3.65;;;2.08;;
16385;SDS011;8302;51.154;4.456;2023-12-14T13:43:50;2.40;;;1.95;;
16385;SDS011;8302;51.154;4.456;2023-12-14T13:46:18;2.38;;;1.85;;
16385;SDS011;8302;51.154;4.456;2023-12-14T13:48:49;3.30;;;1.80;;
16385;SDS011;8302;51.154;4.456;2023-12-14T13:51:21;3.53;;;2.20;;
16385;SDS011;8302;51.154;4.456;2023-12-14T13:53:48;3.72;;;2.00;;
16385;SDS011;8302;51.154;4.456;2023-12-14T13:56:16;3.33;;;1.80;;
16385;SDS011;8302;51.154;4.456;2023-12-14T13:58:44;2.20;;;1.90;;
16385;SDS011;8302;51.154;4.456;2023-12-14T14:01:12;4.00;;;2.20;;
16385;SDS011;8302;51.154;4.456;2023-12-14T14:03:40;2.72;;;2.00;;
16385;SDS011;8302;51.154;4.456;2023-12-14T14:06:08;2.38;;;1.65;;
16385;SDS011;8302;51.154;4.456;2023-12-14T14:08:38;3.50;;;2.47;;
16385;SDS011;8302;51.154;4.456;2023-12-14T14:11:05;2.75;;;2.00;;
16385;SDS011;8302;51.154;4.456;2023-12-14T14:13:36;3.42;;;2.20;;
16385;SDS011;8302;51.154;4.456;2023-12-14T14:16:04;3.05;;;1.90;;
16385;SDS011;8302;51.154;4.456;2023-12-14T14:18:32;3.03;;;2.20;;
16385;SDS011;8302;51.154;4.456;2023-12-14T14:21:00;2.38;;;1.90;;
16385;SDS011;8302;51.154;4.456;2023-12-14T14:23:28;2.88;;;1.92;;
16385;SDS011;8302;51.154;4.456;2023-12-14T14:25:59;3.33;;;1.98;;
16385;SDS011;8302;51.154;4.456;2023-12-14T14:28:27;2.65;;;1.98;;
16385;SDS011;8302;51.154;4.456;2023-12-14T14:30:55;5.35;;;1.83;;
16385;SDS011;8302;51.154;4.456;2023-12-14T14:33:23;3.25;;;2.15;;
16385;SDS011;8302;51.154;4.456;2023-12-14T14:35:51;2.45;;;1.88;;
16385;SDS011;8302;51.154;4.456;2023-12-14T14:38:19;3.33;;;2.10;;
16385;SDS011;8302;51.154;4.456;2023-12-14T14:40:47;3.67;;;2.42;;
16385;SDS011;8302;51.154;4.456;2023-12-14T14:43:16;4.13;;;2.20;;
16385;SDS011;8302;51.154;4.456;2023-12-14T14:45:44;3.28;;;2.20;;
16385;SDS011;8302;51.154;4.456;2023-12-14T14:48:12;4.82;;;2.50;;
16385;SDS011;8302;51.154;4.456;2023-12-14T14:50:40;3.70;;;2.20;;
16385;SDS011;8302;51.154;4.456;2023-12-14T14:53:07;4.72;;;2.25;;
16385;SDS011;8302;51.154;4.456;2023-12-14T14:55:35;3.42;;;2.25;;
16385;SDS011;8302;51.154;4.456;2023-12-14T14:58:03;2.33;;;1.92;;
16385;SDS011;8302;51.154;4.456;2023-12-14T15:00:32;3.38;;;2.03;;
16385;SDS011;8302;51.154;4.456;2023-12-14T15:03:05;4.13;;;2.30;;
16385;SDS011;8302;51.154;4.456;2023-12-14T15:05:36;3.45;;;2.13;;